sensor_id;sensor_type;location;lat;lon;timestamp;P1;durP1;ratioP1;P2;durP2;ratioP2
41629;SDS011;27322;49.488;8.480;2023-12-28T00:01:55;7.63;;;3.60;;
41629;SDS011;27322;49.488;8.480;2023-12-28T00:04:20;7.95;;;4.00;;
41629;SDS011;27322;49.488;8.480;2023-12-28T00:06:46;9.45;;;4.13;;
41629;SDS011;27322;49.488;8.480;2023-12-28T00:09:12;11.00;;;4.25;;
41629;SDS011;27322;49.488;8.480;2023-12-28T00:11:38;11.63;;;4.35;;
41629;SDS011;27322;49.488;8.480;2023-12-28T00:14:04;7.65;;;4.43;;
41629;SDS011;27322;49.488;8.480;2023-12-28T00:16:30;8.75;;;4.25;;
41629;SDS011;27322;49.488;8.480;2023-12-28T00:18:57;8.35;;;4.20;;
41629;SDS011;27322;49.488;8.480;2023-12-28T00:21:23;9.30;;;4.57;;
41629;SDS011;27322;49.488;8.480;2023-12-28T00:23:48;10.75;;;4.60;;
41629;SDS011;27322;49.488;8.480;2023-12-28T00:26:14;10.65;;;4.68;;
41629;SDS011;27322;49.488;8.480;2023-12-28T00:28:46;12.35;;;4.70;;
41629;SDS011;27322;49.488;8.480;2023-12-28T00:31:12;11.00;;;4.70;;
41629;SDS011;27322;49.488;8.480;2023-12-28T00:33:37;8.52;;;3.90;;
41629;SDS011;27322;49.488;8.480;2023-12-28T00:36:03;8.00;;;4.25;;
41629;SDS011;27322;49.488;8.480;2023-12-28T00:38:29;8.48;;;4.40;;
41629;SDS011;27322;49.488;8.480;2023-12-28T00:40:54;8.95;;;4.32;;
41629;SDS011;27322;49.488;8.480;2023-12-28T00:43:20;9.13;;;4.05;;
41629;SDS011;27322;49.488;8.480;2023-12-28T00:45:45;8.15;;;3.60;;
41629;SDS011;27322;49.488;8.480;2023-12-28T00:48:11;8.82;;;3.70;;
41629;SDS011;27322;49.488;8.480;2023-12-28T00:50:37;7.95;;;3.45;;
41629;SDS011;27322;49.488;8.480;2023-12-28T00:53:02;6.80;;;3.38;;
41629;SDS011;27322;49.488;8.480;2023-12-28T00:55:28;7.20;;;3.67;;
41629;SDS011;27322;49.488;8.480;2023-12-28T00:57:53;7.15;;;3.03;;
41629;SDS011;27322;49.488;8.480;2023-12-28T01:00:19;8.93;;;3.20;;
41629;SDS011;27322;49.488;8.480;2023-12-28T01:02:45;8.30;;;3.05;;
41629;SDS011;27322;49.488;8.480;2023-12-28T01:05:14;8.13;;;3.00;;
41629;SDS011;27322;49.488;8.480;2023-12-28T01:07:39;6.82;;;3.10;;
41629;SDS011;27322;49.488;8.480;2023-12-28T01:10:05;5.45;;;2.70;;
41629;SDS011;27322;49.488;8.480;2023-12-28T01:12:31;8.25;;;2.67;;
41629;SDS011;27322;49.488;8.480;2023-12-28T01:14:57;6.32;;;2.80;;
41629;SDS011;27322;49.488;8.480;2023-12-28T01:17:23;4.90;;;2.30;;
41629;SDS011;27322;49.488;8.480;2023-12-28T01:19:48;5.28;;;2.60;;
41629;SDS011;27322;49.488;8.480;2023-12-28T01:22:14;5.60;;;2.30;;
41629;SDS011;27322;49.488;8.480;2023-12-28T01:24:40;4.93;;;2.40;;
41629;SDS011;27322;49.488;8.480;2023-12-28T01:27:06;5.68;;;2.30;;
41629;SDS011;27322;49.488;8.480;2023-12-28T01:29:31;6.32;;;2.53;;
41629;SDS011;27322;49.488;8.480;2023-12-28T01:31:57;6.85;;;2.50;;
41629;SDS011;27322;49.488;8.480;2023-12-28T01:34:23;5.93;;;2.17;;
41629;SDS011;27322;49.488;8.480;2023-12-28T01:36:49;5.32;;;2.10;;
41629;SDS011;27322;49.488;8.480;2023-12-28T01:39:14;5.38;;;2.50;;
41629;SDS011;27322;49.488;8.480;2023-12-28T01:41:40;4.25;;;1.80;;
41629;SDS011;27322;49.488;8.480;2023-12-28T01:44:06;4.85;;;2.10;;
41629;SDS011;27322;49.488;8.480;2023-12-28T01:46:32;5.85;;;2.40;;
41629;SDS011;27322;49.488;8.480;2023-12-28T01:48:58;6.25;;;2.33;;
41629;SDS011;27322;49.488;8.480;2023-12-28T01:51:24;4.57;;;1.98;;
41629;SDS011;27322;49.488;8.480;2023-12-28T01:53:51;4.97;;;2.00;;
41629;SDS011;27322;49.488;8.480;2023-12-28T01:56:18;5.32;;;2.03;;
41629;SDS011;27322;49.488;8.480;2023-12-28T01:58:44;5.38;;;1.90;;
41629;SDS011;27322;49.488;8.480;2023-12-28T02:01:12;5.40;;;2.22;;
41629;SDS011;27322;49.488;8.480;2023-12-28T02:03:38;4.90;;;1.65;;
41629;SDS011;27322;49.488;8.480;2023-12-28T02:06:04;5.57;;;2.22;;
41629;SDS011;27322;49.488;8.480;2023-12-28T02:08:32;5.80;;;1.70;;
41629;SDS011;27322;49.488;8.480;2023-12-28T02:10:57;6.22;;;1.83;;
41629;SDS011;27322;49.488;8.480;2023-12-28T02:13:24;6.55;;;2.30;;
41629;SDS011;27322;49.488;8.480;2023-12-28T02:15:54;4.57;;;1.70;;
41629;SDS011;27322;49.488;8.480;2023-12-28T02:18:30;4.47;;;1.67;;
41629;SDS011;27322;49.488;8.480;2023-12-28T02:21:02;5.68;;;1.85;;
41629;SDS011;27322;49.488;8.480;2023-12-28T02:23:28;4.72;;;1.73;;
41629;SDS011;27322;49.488;8.480;2023-12-28T02:25:54;6.00;;;1.77;;
41629;SDS011;27322;49.488;8.480;2023-12-28T02:28:19;4.53;;;1.85;;
41629;SDS011;27322;49.488;8.480;2023-12-28T02:30:45;4.20;;;1.83;;
41629;SDS011;27322;49.488;8.480;2023-12-28T02:33:34;4.43;;;1.88;;
41629;SDS011;27322;49.488;8.480;2023-12-28T02:36:09;5.07;;;2.08;;
41629;SDS011;27322;49.488;8.480;2023-12-28T02:38:36;3.63;;;1.70;;
41629;SDS011;27322;49.488;8.480;2023-12-28T02:41:04;3.45;;;1.50;;
41629;SDS011;27322;49.488;8.480;2023-12-28T02:43:30;4.00;;;1.67;;
41629;SDS011;27322;49.488;8.480;2023-12-28T02:45:56;5.93;;;1.73;;
41629;SDS011;27322;49.488;8.480;2023-12-28T02:48:22;4.20;;;1.75;;
41629;SDS011;27322;49.488;8.480;2023-12-28T02:50:48;4.55;;;1.63;;
41629;SDS011;27322;49.488;8.480;2023-12-28T02:53:13;4.93;;;1.55;;
41629;SDS011;27322;49.488;8.480;2023-12-28T02:55:39;4.35;;;1.75;;
41629;SDS011;27322;49.488;8.480;2023-12-28T02:58:04;4.40;;;1.67;;
41629;SDS011;27322;49.488;8.480;2023-12-28T03:00:30;3.92;;;1.60;;
41629;SDS011;27322;49.488;8.480;2023-12-28T03:02:55;3.35;;;1.45;;
41629;SDS011;27322;49.488;8.480;2023-12-28T03:05:21;4.88;;;1.70;;
41629;SDS011;27322;49.488;8.480;2023-12-28T03:07:47;4.72;;;1.60;;
41629;SDS011;27322;49.488;8.480;2023-12-28T03:10:13;3.28;;;1.33;;
41629;SDS011;27322;49.488;8.480;2023-12-28T03:12:38;4.03;;;1.60;;
41629;SDS011;27322;49.488;8.480;2023-12-28T03:15:04;3.70;;;1.30;;
41629;SDS011;27322;49.488;8.480;2023-12-28T03:17:30;4.15;;;1.55;;
41629;SDS011;27322;49.488;8.480;2023-12-28T03:19:58;3.55;;;1.40;;
41629;SDS011;27322;49.488;8.480;2023-12-28T03:22:24;3.60;;;1.42;;
41629;SDS011;27322;49.488;8.480;2023-12-28T03:24:49;3.88;;;1.58;;
41629;SDS011;27322;49.488;8.480;2023-12-28T03:27:15;3.47;;;1.35;;
41629;SDS011;27322;49.488;8.480;2023-12-28T03:29:41;4.82;;;1.73;;
41629;SDS011;27322;49.488;8.480;2023-12-28T03:32:07;3.17;;;1.30;;
41629;SDS011;27322;49.488;8.480;2023-12-28T03:34:33;3.42;;;1.35;;
41629;SDS011;27322;49.488;8.480;2023-12-28T03:36:59;5.57;;;1.70;;
41629;SDS011;27322;49.488;8.480;2023-12-28T03:39:25;4.07;;;1.70;;
41629;SDS011;27322;49.488;8.480;2023-12-28T03:41:51;2.97;;;1.30;;
41629;SDS011;27322;49.488;8.480;2023-12-28T03:44:19;4.38;;;1.48;;
41629;SDS011;27322;49.488;8.480;2023-12-28T03:46:48;3.35;;;1.42;;
41629;SDS011;27322;49.488;8.480;2023-12-28T03:49:18;3.80;;;1.55;;
41629;SDS011;27322;49.488;8.480;2023-12-28T03:51:45;4.35;;;1.35;;
41629;SDS011;27322;49.488;8.480;2023-12-28T03:54:12;2.70;;;1.20;;
41629;SDS011;27322;49.488;8.480;2023-12-28T03:56:40;3.22;;;1.30;;
41629;SDS011;27322;49.488;8.480;2023-12-28T03:59:08;2.72;;;1.23;;
41629;SDS011;27322;49.488;8.480;2023-12-28T04:01:33;2.80;;;1.23;;
41629;SDS011;27322;49.488;8.480;2023-12-28T04:03:59;3.58;;;1.30;;
41629;SDS011;27322;49.488;8.480;2023-12-28T04:06:25;3.08;;;1.23;;
41629;SDS011;27322;49.488;8.480;2023-12-28T04:08:50;3.05;;;1.20;;
41629;SDS011;27322;49.488;8.480;2023-12-28T04:11:16;4.18;;;1.40;;
41629;SDS011;27322;49.488;8.480;2023-12-28T04:13:41;3.13;;;1.38;;
41629;SDS011;27322;49.488;8.480;2023-12-28T04:16:07;3.92;;;1.33;;
41629;SDS011;27322;49.488;8.480;2023-12-28T04:18:34;4.03;;;1.50;;
41629;SDS011;27322;49.488;8.480;2023-12-28T04:21:00;5.00;;;1.58;;
41629;SDS011;27322;49.488;8.480;2023-12-28T04:23:25;4.40;;;1.30;;
41629;SDS011;27322;49.488;8.480;2023-12-28T04:25:51;3.15;;;1.10;;
41629;SDS011;27322;49.488;8.480;2023-12-28T04:28:17;3.72;;;1.40;;
41629;SDS011;27322;49.488;8.480;2023-12-28T04:30:42;3.22;;;1.20;;
41629;SDS011;27322;49.488;8.480;2023-12-28T04:33:08;3.95;;;1.45;;
41629;SDS011;27322;49.488;8.480;2023-12-28T04:35:33;3.15;;;1.20;;
41629;SDS011;27322;49.488;8.480;2023-12-28T04:37:59;4.63;;;1.30;;
41629;SDS011;27322;49.488;8.480;2023-12-28T04:40:25;3.75;;;1.20;;
41629;SDS011;27322;49.488;8.480;2023-12-28T04:42:50;3.88;;;1.50;;
41629;SDS011;27322;49.488;8.480;2023-12-28T04:45:16;2.70;;;1.00;;
41629;SDS011;27322;49.488;8.480;2023-12-28T04:47:41;3.22;;;1.08;;
41629;SDS011;27322;49.488;8.480;2023-12-28T04:50:07;3.80;;;1.10;;
41629;SDS011;27322;49.488;8.480;2023-12-28T04:52:33;3.35;;;1.10;;
41629;SDS011;27322;49.488;8.480;2023-12-28T04:54:58;2.63;;;1.10;;
41629;SDS011;27322;49.488;8.480;2023-12-28T04:57:24;3.00;;;1.40;;
41629;SDS011;27322;49.488;8.480;2023-12-28T04:59:51;3.38;;;1.20;;
41629;SDS011;27322;49.488;8.480;2023-12-28T05:02:17;3.47;;;1.27;;
41629;SDS011;27322;49.488;8.480;2023-12-28T05:04:43;3.17;;;1.17;;
41629;SDS011;27322;49.488;8.480;2023-12-28T05:07:08;2.75;;;1.10;;
41629;SDS011;27322;49.488;8.480;2023-12-28T05:09:34;3.20;;;1.30;;
41629;SDS011;27322;49.488;8.480;2023-12-28T05:12:00;3.63;;;1.10;;
41629;SDS011;27322;49.488;8.480;2023-12-28T05:14:25;2.53;;;1.00;;
41629;SDS011;27322;49.488;8.480;2023-12-28T05:16:51;3.58;;;1.20;;
41629;SDS011;27322;49.488;8.480;2023-12-28T05:19:16;3.50;;;1.10;;
41629;SDS011;27322;49.488;8.480;2023-12-28T05:21:42;3.90;;;1.10;;
41629;SDS011;27322;49.488;8.480;2023-12-28T05:24:08;3.03;;;1.05;;
41629;SDS011;27322;49.488;8.480;2023-12-28T05:26:33;3.05;;;1.10;;
41629;SDS011;27322;49.488;8.480;2023-12-28T05:28:59;3.28;;;1.30;;
41629;SDS011;27322;49.488;8.480;2023-12-28T05:31:25;3.13;;;1.33;;
41629;SDS011;27322;49.488;8.480;2023-12-28T05:33:51;3.35;;;1.08;;
41629;SDS011;27322;49.488;8.480;2023-12-28T05:36:16;2.80;;;1.00;;
41629;SDS011;27322;49.488;8.480;2023-12-28T05:38:42;4.63;;;1.20;;
41629;SDS011;27322;49.488;8.480;2023-12-28T05:41:11;4.45;;;0.90;;
41629;SDS011;27322;49.488;8.480;2023-12-28T05:43:37;3.22;;;1.15;;
41629;SDS011;27322;49.488;8.480;2023-12-28T05:46:02;3.17;;;1.13;;
41629;SDS011;27322;49.488;8.480;2023-12-28T05:48:28;3.80;;;1.00;;
41629;SDS011;27322;49.488;8.480;2023-12-28T05:50:54;4.00;;;1.10;;
41629;SDS011;27322;49.488;8.480;2023-12-28T05:53:19;3.20;;;1.20;;
41629;SDS011;27322;49.488;8.480;2023-12-28T05:55:45;2.67;;;1.20;;
41629;SDS011;27322;49.488;8.480;2023-12-28T05:58:10;3.10;;;1.30;;
41629;SDS011;27322;49.488;8.480;2023-12-28T06:00:36;4.47;;;1.30;;
41629;SDS011;27322;49.488;8.480;2023-12-28T06:03:03;3.38;;;1.45;;
41629;SDS011;27322;49.488;8.480;2023-12-28T06:05:29;3.22;;;1.40;;
41629;SDS011;27322;49.488;8.480;2023-12-28T06:07:55;4.07;;;1.38;;
41629;SDS011;27322;49.488;8.480;2023-12-28T06:10:20;3.40;;;1.17;;
41629;SDS011;27322;49.488;8.480;2023-12-28T06:12:46;2.40;;;1.00;;
41629;SDS011;27322;49.488;8.480;2023-12-28T06:15:11;2.75;;;1.10;;
41629;SDS011;27322;49.488;8.480;2023-12-28T06:17:37;2.88;;;1.00;;
41629;SDS011;27322;49.488;8.480;2023-12-28T06:20:03;3.35;;;1.23;;
41629;SDS011;27322;49.488;8.480;2023-12-28T06:22:29;3.60;;;0.98;;
41629;SDS011;27322;49.488;8.480;2023-12-28T06:24:55;2.63;;;1.00;;
41629;SDS011;27322;49.488;8.480;2023-12-28T06:27:21;3.72;;;1.20;;
41629;SDS011;27322;49.488;8.480;2023-12-28T06:29:46;2.45;;;1.08;;
41629;SDS011;27322;49.488;8.480;2023-12-28T06:32:12;3.15;;;1.17;;
41629;SDS011;27322;49.488;8.480;2023-12-28T06:34:38;2.83;;;1.20;;
41629;SDS011;27322;49.488;8.480;2023-12-28T06:37:04;4.07;;;1.45;;
41629;SDS011;27322;49.488;8.480;2023-12-28T06:39:30;3.10;;;1.20;;
41629;SDS011;27322;49.488;8.480;2023-12-28T06:41:55;2.80;;;1.10;;
41629;SDS011;27322;49.488;8.480;2023-12-28T06:44:21;3.58;;;1.20;;
41629;SDS011;27322;49.488;8.480;2023-12-28T06:46:46;3.88;;;1.13;;
41629;SDS011;27322;49.488;8.480;2023-12-28T06:49:12;3.10;;;1.25;;
41629;SDS011;27322;49.488;8.480;2023-12-28T06:51:37;3.05;;;0.98;;
41629;SDS011;27322;49.488;8.480;2023-12-28T06:54:03;3.25;;;1.20;;
41629;SDS011;27322;49.488;8.480;2023-12-28T06:56:29;2.88;;;1.40;;
41629;SDS011;27322;49.488;8.480;2023-12-28T06:58:54;2.60;;;1.30;;
41629;SDS011;27322;49.488;8.480;2023-12-28T07:01:20;2.78;;;1.10;;
41629;SDS011;27322;49.488;8.480;2023-12-28T07:03:45;2.83;;;1.20;;
41629;SDS011;27322;49.488;8.480;2023-12-28T07:06:11;4.05;;;1.38;;
41629;SDS011;27322;49.488;8.480;2023-12-28T07:08:39;4.32;;;1.30;;
41629;SDS011;27322;49.488;8.480;2023-12-28T07:11:04;3.40;;;1.20;;
41629;SDS011;27322;49.488;8.480;2023-12-28T07:13:30;3.88;;;1.33;;
41629;SDS011;27322;49.488;8.480;2023-12-28T07:15:55;3.10;;;1.30;;
41629;SDS011;27322;49.488;8.480;2023-12-28T07:18:21;3.65;;;1.20;;
41629;SDS011;27322;49.488;8.480;2023-12-28T07:20:47;2.47;;;1.08;;
41629;SDS011;27322;49.488;8.480;2023-12-28T07:23:13;4.53;;;1.17;;
41629;SDS011;27322;49.488;8.480;2023-12-28T07:25:39;3.75;;;1.20;;
41629;SDS011;27322;49.488;8.480;2023-12-28T07:28:05;4.82;;;1.13;;
41629;SDS011;27322;49.488;8.480;2023-12-28T07:30:31;3.85;;;1.00;;
41629;SDS011;27322;49.488;8.480;2023-12-28T07:32:56;3.20;;;1.25;;
41629;SDS011;27322;49.488;8.480;2023-12-28T07:35:22;2.45;;;1.20;;
41629;SDS011;27322;49.488;8.480;2023-12-28T07:37:48;2.40;;;1.10;;
41629;SDS011;27322;49.488;8.480;2023-12-28T07:40:14;2.85;;;1.10;;
41629;SDS011;27322;49.488;8.480;2023-12-28T07:42:40;3.35;;;1.40;;
41629;SDS011;27322;49.488;8.480;2023-12-28T07:45:06;3.67;;;1.25;;
41629;SDS011;27322;49.488;8.480;2023-12-28T07:47:32;3.88;;;1.30;;
41629;SDS011;27322;49.488;8.480;2023-12-28T07:49:58;3.17;;;1.35;;
41629;SDS011;27322;49.488;8.480;2023-12-28T07:52:24;4.68;;;1.15;;
41629;SDS011;27322;49.488;8.480;2023-12-28T07:54:49;4.63;;;1.40;;
41629;SDS011;27322;49.488;8.480;2023-12-28T07:57:15;3.42;;;1.17;;
41629;SDS011;27322;49.488;8.480;2023-12-28T07:59:41;2.47;;;0.98;;
41629;SDS011;27322;49.488;8.480;2023-12-28T08:02:06;2.65;;;1.10;;
41629;SDS011;27322;49.488;8.480;2023-12-28T08:04:33;4.35;;;1.10;;
41629;SDS011;27322;49.488;8.480;2023-12-28T08:06:59;2.63;;;1.13;;
41629;SDS011;27322;49.488;8.480;2023-12-28T08:09:24;2.30;;;1.10;;
41629;SDS011;27322;49.488;8.480;2023-12-28T08:11:50;2.78;;;1.00;;
41629;SDS011;27322;49.488;8.480;2023-12-28T08:14:15;3.85;;;1.10;;
41629;SDS011;27322;49.488;8.480;2023-12-28T08:16:41;2.20;;;0.98;;
41629;SDS011;27322;49.488;8.480;2023-12-28T08:19:07;4.82;;;1.42;;
41629;SDS011;27322;49.488;8.480;2023-12-28T08:21:32;3.25;;;1.20;;
41629;SDS011;27322;49.488;8.480;2023-12-28T08:23:58;3.13;;;1.08;;
41629;SDS011;27322;49.488;8.480;2023-12-28T08:26:23;4.55;;;1.10;;
41629;SDS011;27322;49.488;8.480;2023-12-28T08:28:49;2.97;;;1.10;;
41629;SDS011;27322;49.488;8.480;2023-12-28T08:31:14;2.72;;;1.08;;
41629;SDS011;27322;49.488;8.480;2023-12-28T08:33:40;3.22;;;1.30;;
41629;SDS011;27322;49.488;8.480;2023-12-28T08:36:06;4.22;;;1.20;;
41629;SDS011;27322;49.488;8.480;2023-12-28T08:38:32;2.50;;;1.10;;
41629;SDS011;27322;49.488;8.480;2023-12-28T08:40:58;3.63;;;1.30;;
41629;SDS011;27322;49.488;8.480;2023-12-28T08:43:23;2.83;;;1.23;;
41629;SDS011;27322;49.488;8.480;2023-12-28T08:45:49;4.05;;;1.58;;
41629;SDS011;27322;49.488;8.480;2023-12-28T08:48:15;3.35;;;1.17;;
41629;SDS011;27322;49.488;8.480;2023-12-28T08:50:40;2.20;;;1.10;;
41629;SDS011;27322;49.488;8.480;2023-12-28T08:53:06;2.38;;;1.10;;
41629;SDS011;27322;49.488;8.480;2023-12-28T08:55:31;3.30;;;1.30;;
41629;SDS011;27322;49.488;8.480;2023-12-28T08:57:58;2.95;;;1.20;;
41629;SDS011;27322;49.488;8.480;2023-12-28T09:00:24;3.85;;;1.38;;
41629;SDS011;27322;49.488;8.480;2023-12-28T09:02:50;2.58;;;1.20;;
41629;SDS011;27322;49.488;8.480;2023-12-28T09:05:16;3.58;;;1.55;;
41629;SDS011;27322;49.488;8.480;2023-12-28T09:07:42;4.80;;;1.30;;
41629;SDS011;27322;49.488;8.480;2023-12-28T09:10:11;3.60;;;1.73;;
41629;SDS011;27322;49.488;8.480;2023-12-28T09:12:37;4.38;;;1.40;;
41629;SDS011;27322;49.488;8.480;2023-12-28T09:15:05;2.83;;;1.45;;
41629;SDS011;27322;49.488;8.480;2023-12-28T09:17:32;2.70;;;1.10;;
41629;SDS011;27322;49.488;8.480;2023-12-28T09:19:57;3.13;;;1.27;;
41629;SDS011;27322;49.488;8.480;2023-12-28T09:22:23;3.47;;;1.20;;
41629;SDS011;27322;49.488;8.480;2023-12-28T09:24:49;4.85;;;1.30;;
41629;SDS011;27322;49.488;8.480;2023-12-28T09:27:18;2.25;;;1.02;;
41629;SDS011;27322;49.488;8.480;2023-12-28T09:29:44;2.83;;;1.15;;
41629;SDS011;27322;49.488;8.480;2023-12-28T09:32:09;3.33;;;1.40;;
41629;SDS011;27322;49.488;8.480;2023-12-28T09:34:35;5.45;;;1.15;;
41629;SDS011;27322;49.488;8.480;2023-12-28T09:37:01;2.47;;;1.00;;
41629;SDS011;27322;49.488;8.480;2023-12-28T09:39:27;2.92;;;1.17;;
41629;SDS011;27322;49.488;8.480;2023-12-28T09:41:59;3.35;;;1.40;;
41629;SDS011;27322;49.488;8.480;2023-12-28T09:44:30;4.82;;;1.20;;
41629;SDS011;27322;49.488;8.480;2023-12-28T09:46:56;2.55;;;1.20;;
41629;SDS011;27322;49.488;8.480;2023-12-28T09:49:22;2.85;;;1.20;;
41629;SDS011;27322;49.488;8.480;2023-12-28T09:51:48;3.55;;;1.30;;
41629;SDS011;27322;49.488;8.480;2023-12-28T09:54:14;2.42;;;1.13;;
41629;SDS011;27322;49.488;8.480;2023-12-28T09:56:40;2.83;;;1.05;;
41629;SDS011;27322;49.488;8.480;2023-12-28T09:59:06;2.28;;;1.10;;
41629;SDS011;27322;49.488;8.480;2023-12-28T10:01:33;2.58;;;1.00;;
41629;SDS011;27322;49.488;8.480;2023-12-28T10:03:59;3.13;;;1.38;;
41629;SDS011;27322;49.488;8.480;2023-12-28T10:06:28;3.17;;;1.05;;
41629;SDS011;27322;49.488;8.480;2023-12-28T10:08:53;3.25;;;1.40;;
41629;SDS011;27322;49.488;8.480;2023-12-28T10:11:21;2.55;;;1.10;;
41629;SDS011;27322;49.488;8.480;2023-12-28T10:13:48;4.20;;;1.17;;
41629;SDS011;27322;49.488;8.480;2023-12-28T10:16:15;3.10;;;1.15;;
41629;SDS011;27322;49.488;8.480;2023-12-28T10:18:43;3.00;;;1.27;;
41629;SDS011;27322;49.488;8.480;2023-12-28T10:21:09;3.78;;;1.35;;
41629;SDS011;27322;49.488;8.480;2023-12-28T10:23:35;3.58;;;1.10;;
41629;SDS011;27322;49.488;8.480;2023-12-28T10:26:01;2.85;;;1.13;;
41629;SDS011;27322;49.488;8.480;2023-12-28T10:28:31;3.70;;;1.30;;
41629;SDS011;27322;49.488;8.480;2023-12-28T10:30:58;4.97;;;1.40;;
41629;SDS011;27322;49.488;8.480;2023-12-28T10:33:24;4.07;;;1.55;;
41629;SDS011;27322;49.488;8.480;2023-12-28T10:35:50;2.95;;;1.17;;
41629;SDS011;27322;49.488;8.480;2023-12-28T10:38:16;4.03;;;1.20;;
41629;SDS011;27322;49.488;8.480;2023-12-28T10:40:46;4.25;;;1.20;;
41629;SDS011;27322;49.488;8.480;2023-12-28T10:43:15;2.95;;;1.20;;
41629;SDS011;27322;49.488;8.480;2023-12-28T10:45:42;2.42;;;1.00;;
41629;SDS011;27322;49.488;8.480;2023-12-28T10:48:13;3.13;;;1.40;;
41629;SDS011;27322;49.488;8.480;2023-12-28T10:50:40;4.53;;;1.50;;
41629;SDS011;27322;49.488;8.480;2023-12-28T10:53:30;2.83;;;1.17;;
41629;SDS011;27322;49.488;8.480;2023-12-28T10:58:42;2.97;;;1.25;;
41629;SDS011;27322;49.488;8.480;2023-12-28T11:01:22;3.33;;;1.35;;
41629;SDS011;27322;49.488;8.480;2023-12-28T11:04:03;3.25;;;1.17;;
41629;SDS011;27322;49.488;8.480;2023-12-28T11:06:31;4.47;;;1.30;;
41629;SDS011;27322;49.488;8.480;2023-12-28T11:08:58;3.63;;;1.20;;
41629;SDS011;27322;49.488;8.480;2023-12-28T11:11:26;4.03;;;1.27;;
41629;SDS011;27322;49.488;8.480;2023-12-28T11:13:54;3.90;;;1.20;;
41629;SDS011;27322;49.488;8.480;2023-12-28T11:16:21;7.72;;;1.20;;
41629;SDS011;27322;49.488;8.480;2023-12-28T11:18:47;3.47;;;1.77;;
41629;SDS011;27322;49.488;8.480;2023-12-28T11:21:15;6.32;;;1.65;;
41629;SDS011;27322;49.488;8.480;2023-12-28T11:23:42;4.90;;;1.60;;
41629;SDS011;27322;49.488;8.480;2023-12-28T11:26:15;2.88;;;1.30;;
41629;SDS011;27322;49.488;8.480;2023-12-28T11:28:45;3.42;;;1.10;;
41629;SDS011;27322;49.488;8.480;2023-12-28T11:31:14;3.33;;;1.20;;
41629;SDS011;27322;49.488;8.480;2023-12-28T11:33:47;3.38;;;1.40;;
41629;SDS011;27322;49.488;8.480;2023-12-28T11:36:23;3.35;;;1.23;;
41629;SDS011;27322;49.488;8.480;2023-12-28T11:38:55;3.58;;;1.08;;
41629;SDS011;27322;49.488;8.480;2023-12-28T11:41:26;3.63;;;1.20;;
41629;SDS011;27322;49.488;8.480;2023-12-28T11:43:52;3.47;;;1.27;;
41629;SDS011;27322;49.488;8.480;2023-12-28T11:46:20;8.02;;;1.45;;
41629;SDS011;27322;49.488;8.480;2023-12-28T11:48:46;3.92;;;1.40;;
41629;SDS011;27322;49.488;8.480;2023-12-28T11:51:12;4.18;;;1.23;;
41629;SDS011;27322;49.488;8.480;2023-12-28T11:53:38;4.30;;;1.38;;
41629;SDS011;27322;49.488;8.480;2023-12-28T11:56:04;2.75;;;1.30;;
41629;SDS011;27322;49.488;8.480;2023-12-28T11:58:34;3.40;;;1.40;;
41629;SDS011;27322;49.488;8.480;2023-12-28T12:01:00;3.80;;;1.40;;
41629;SDS011;27322;49.488;8.480;2023-12-28T12:03:27;4.43;;;1.75;;
41629;SDS011;27322;49.488;8.480;2023-12-28T12:05:55;4.05;;;1.52;;
41629;SDS011;27322;49.488;8.480;2023-12-28T12:08:22;4.53;;;1.33;;
41629;SDS011;27322;49.488;8.480;2023-12-28T12:10:48;6.07;;;1.58;;
41629;SDS011;27322;49.488;8.480;2023-12-28T12:13:13;3.28;;;1.40;;
41629;SDS011;27322;49.488;8.480;2023-12-28T12:15:39;3.55;;;1.70;;
41629;SDS011;27322;49.488;8.480;2023-12-28T12:18:05;3.92;;;1.60;;
41629;SDS011;27322;49.488;8.480;2023-12-28T12:20:31;6.35;;;1.50;;
41629;SDS011;27322;49.488;8.480;2023-12-28T12:22:58;4.15;;;1.35;;
41629;SDS011;27322;49.488;8.480;2023-12-28T12:25:24;3.53;;;1.48;;
41629;SDS011;27322;49.488;8.480;2023-12-28T12:27:50;3.72;;;1.40;;
41629;SDS011;27322;49.488;8.480;2023-12-28T12:30:15;5.03;;;1.42;;
41629;SDS011;27322;49.488;8.480;2023-12-28T12:32:41;3.47;;;1.55;;
41629;SDS011;27322;49.488;8.480;2023-12-28T12:35:09;4.88;;;1.75;;
41629;SDS011;27322;49.488;8.480;2023-12-28T12:37:36;3.22;;;1.30;;
41629;SDS011;27322;49.488;8.480;2023-12-28T12:40:03;4.10;;;1.45;;
41629;SDS011;27322;49.488;8.480;2023-12-28T12:42:30;5.95;;;2.05;;
41629;SDS011;27322;49.488;8.480;2023-12-28T12:44:57;3.53;;;1.67;;
41629;SDS011;27322;49.488;8.480;2023-12-28T12:47:22;4.22;;;1.83;;
41629;SDS011;27322;49.488;8.480;2023-12-28T12:49:48;5.43;;;1.90;;
41629;SDS011;27322;49.488;8.480;2023-12-28T12:52:16;3.72;;;1.80;;
41629;SDS011;27322;49.488;8.480;2023-12-28T12:54:42;5.20;;;1.80;;
41629;SDS011;27322;49.488;8.480;2023-12-28T12:57:07;4.28;;;1.50;;
41629;SDS011;27322;49.488;8.480;2023-12-28T12:59:33;3.67;;;1.77;;
41629;SDS011;27322;49.488;8.480;2023-12-28T13:02:00;4.55;;;2.08;;
41629;SDS011;27322;49.488;8.480;2023-12-28T13:04:26;4.25;;;1.98;;
41629;SDS011;27322;49.488;8.480;2023-12-28T13:06:52;4.03;;;1.90;;
41629;SDS011;27322;49.488;8.480;2023-12-28T13:09:18;3.92;;;1.75;;
41629;SDS011;27322;49.488;8.480;2023-12-28T13:11:43;5.15;;;2.17;;
41629;SDS011;27322;49.488;8.480;2023-12-28T13:14:09;4.10;;;2.08;;
41629;SDS011;27322;49.488;8.480;2023-12-28T13:16:34;4.95;;;2.00;;
41629;SDS011;27322;49.488;8.480;2023-12-28T13:19:00;4.40;;;1.80;;
41629;SDS011;27322;49.488;8.480;2023-12-28T13:21:26;4.10;;;1.73;;
41629;SDS011;27322;49.488;8.480;2023-12-28T13:23:51;5.63;;;2.15;;
41629;SDS011;27322;49.488;8.480;2023-12-28T13:26:17;5.60;;;2.15;;
41629;SDS011;27322;49.488;8.480;2023-12-28T13:28:43;4.25;;;2.28;;
41629;SDS011;27322;49.488;8.480;2023-12-28T13:31:08;6.75;;;2.28;;
41629;SDS011;27322;49.488;8.480;2023-12-28T13:33:34;6.18;;;2.10;;
41629;SDS011;27322;49.488;8.480;2023-12-28T13:36:00;3.70;;;2.00;;
41629;SDS011;27322;49.488;8.480;2023-12-28T13:38:26;3.50;;;1.73;;
41629;SDS011;27322;49.488;8.480;2023-12-28T13:40:52;4.32;;;1.90;;
41629;SDS011;27322;49.488;8.480;2023-12-28T13:43:18;6.38;;;1.85;;
41629;SDS011;27322;49.488;8.480;2023-12-28T13:45:43;4.63;;;1.90;;
41629;SDS011;27322;49.488;8.480;2023-12-28T13:48:09;5.93;;;2.22;;
41629;SDS011;27322;49.488;8.480;2023-12-28T13:50:34;4.65;;;1.90;;
41629;SDS011;27322;49.488;8.480;2023-12-28T13:53:00;3.55;;;1.70;;
41629;SDS011;27322;49.488;8.480;2023-12-28T13:55:26;4.95;;;2.05;;
41629;SDS011;27322;49.488;8.480;2023-12-28T13:57:53;5.03;;;1.60;;
41629;SDS011;27322;49.488;8.480;2023-12-28T14:00:19;4.45;;;1.83;;
41629;SDS011;27322;49.488;8.480;2023-12-28T14:02:44;5.95;;;1.90;;
41629;SDS011;27322;49.488;8.480;2023-12-28T14:05:10;4.05;;;1.83;;
41629;SDS011;27322;49.488;8.480;2023-12-28T14:07:35;4.72;;;1.83;;
41629;SDS011;27322;49.488;8.480;2023-12-28T14:10:01;4.80;;;1.80;;
41629;SDS011;27322;49.488;8.480;2023-12-28T14:12:27;3.22;;;1.45;;
41629;SDS011;27322;49.488;8.480;2023-12-28T14:14:52;3.47;;;1.67;;
41629;SDS011;27322;49.488;8.480;2023-12-28T14:17:18;4.20;;;1.73;;
41629;SDS011;27322;49.488;8.480;2023-12-28T14:19:46;3.97;;;1.35;;
41629;SDS011;27322;49.488;8.480;2023-12-28T14:22:12;3.45;;;1.42;;
41629;SDS011;27322;49.488;8.480;2023-12-28T14:24:38;4.03;;;1.60;;
41629;SDS011;27322;49.488;8.480;2023-12-28T14:27:04;3.10;;;1.40;;
41629;SDS011;27322;49.488;8.480;2023-12-28T14:29:30;5.57;;;1.70;;
41629;SDS011;27322;49.488;8.480;2023-12-28T14:31:56;3.70;;;1.30;;
41629;SDS011;27322;49.488;8.480;2023-12-28T14:34:22;4.07;;;1.60;;
41629;SDS011;27322;49.488;8.480;2023-12-28T14:36:48;5.40;;;1.70;;
41629;SDS011;27322;49.488;8.480;2023-12-28T14:39:17;3.42;;;1.42;;
41629;SDS011;27322;49.488;8.480;2023-12-28T14:41:46;4.20;;;1.80;;
41629;SDS011;27322;49.488;8.480;2023-12-28T14:44:12;4.30;;;1.50;;
41629;SDS011;27322;49.488;8.480;2023-12-28T14:46:37;2.75;;;1.48;;